Time;durP1;ratioP1;P1;durP2;ratioP2;P2;SDS_P1;SDS_P2;PMS_P1;PMS_P2;Temp;Humidity;BMP_temperature;BMP_pressure;BME280_temperature;BME280_humidity;BME280_pressure;Samples;Min_cycle;Max_cycle;Signal;HPM_P1;HPM_P2
2024/04/08 00:01:44;;;;;;;2.20;1.00;;;16.50;99.90;;;;;;5114997;27;20031;-35
2024/04/08 00:04:10;;;;;;;2.50;0.93;;;16.40;99.90;;;;;;5101025;28;20015;-40
2024/04/08 00:06:36;;;;;;;1.48;1.05;;;16.40;99.90;;;;;;5111289;27;20034;-39
2024/04/08 00:09:05;;;;;;;2.28;1.25;;;16.40;99.90;;;;;;5104428;27;20593;-38
2024/04/08 00:11:30;;;;;;;2.45;1.17;;;16.40;99.90;;;;;;5108399;27;20787;-36
2024/04/08 00:13:56;;;;;;;2.00;1.00;;;16.30;99.90;;;;;;5106909;27;20023;-36
2024/04/08 00:16:23;;;;;;;1.42;1.10;;;16.30;99.90;;;;;;5107213;28;20409;-38
2024/04/08 00:18:49;;;;;;;1.42;0.80;;;16.30;99.90;;;;;;5108359;27;20474;-36
2024/04/08 00:21:15;;;;;;;1.52;0.85;;;16.30;99.90;;;;;;5104275;28;20065;-37
2024/04/08 00:23:42;;;;;;;2.92;1.00;;;16.30;99.90;;;;;;5110542;27;20055;-38
2024/04/08 00:26:11;;;;;;;1.95;1.13;;;16.30;99.90;;;;;;5102137;28;20022;-36
2024/04/08 00:28:39;;;;;;;1.92;1.00;;;16.30;99.90;;;;;;5111482;28;20043;-36
2024/04/08 00:31:06;;;;;;;1.80;1.33;;;16.30;99.90;;;;;;5101920;28;20020;-36
2024/04/08 00:33:33;;;;;;;1.65;1.02;;;16.20;99.90;;;;;;5112463;28;20158;-34
2024/04/08 00:35:59;;;;;;;1.92;1.08;;;16.20;99.90;;;;;;5101676;28;20032;-31
2024/04/08 00:38:25;;;;;;;2.63;0.93;;;16.20;99.90;;;;;;5113413;28;20114;-33
2024/04/08 00:40:51;;;;;;;1.67;1.00;;;16.20;99.90;;;;;;5101003;28;20027;-33
2024/04/08 00:43:17;;;;;;;1.30;1.10;;;16.20;99.90;;;;;;5114029;28;20055;-33
2024/04/08 00:45:45;;;;;;;1.30;1.00;;;16.20;99.90;;;;;;5100201;28;20027;-36
2024/04/08 00:48:13;;;;;;;2.45;1.10;;;16.20;99.90;;;;;;5111704;28;20067;-35
2024/04/08 00:50:49;;;;;;;1.63;1.00;;;16.20;99.90;;;;;;5101673;28;20914;-36
2024/04/08 00:53:16;;;;;;;3.33;1.23;;;16.20;99.90;;;;;;5111475;28;20019;-31
2024/04/08 00:55:44;;;;;;;1.25;0.90;;;16.10;99.90;;;;;;5114085;27;20042;-35
2024/04/08 00:58:10;;;;;;;2.13;1.23;;;16.20;99.90;;;;;;5117417;27;20766;-37
2024/04/08 01:00:36;;;;;;;1.20;1.02;;;16.10;99.90;;;;;;5104750;27;20024;-31
2024/04/08 01:03:03;;;;;;;2.35;1.00;;;16.10;99.90;;;;;;5106380;28;20025;-30
2024/04/08 01:05:30;;;;;;;2.92;1.00;;;16.00;99.90;;;;;;5107218;27;20038;-37
2024/04/08 01:07:56;;;;;;;2.13;1.20;;;16.00;99.90;;;;;;5103600;28;20463;-33
2024/04/08 01:10:21;;;;;;;1.60;1.02;;;16.00;99.90;;;;;;5109553;27;20073;-33
2024/04/08 01:12:47;;;;;;;1.15;0.80;;;16.00;99.90;;;;;;5102662;28;20023;-34
2024/04/08 01:15:13;;;;;;;2.60;1.10;;;16.00;99.90;;;;;;5112043;28;20383;-35
2024/04/08 01:17:39;;;;;;;1.30;0.90;;;16.00;99.90;;;;;;5102177;28;20112;-35
2024/04/08 01:20:05;;;;;;;2.67;1.02;;;16.00;99.90;;;;;;5111229;28;20922;-36
2024/04/08 01:22:32;;;;;;;2.00;1.35;;;16.00;99.90;;;;;;5100275;28;20113;-35
2024/04/08 01:25:04;;;;;;;2.13;1.20;;;16.00;99.90;;;;;;5109229;28;20043;-36
2024/04/08 01:27:30;;;;;;;1.75;1.08;;;16.00;99.90;;;;;;5120727;27;20027;-34
2024/04/08 01:29:55;;;;;;;2.17;1.00;;;16.00;99.90;;;;;;5114820;27;20023;-36
2024/04/08 01:32:21;;;;;;;1.00;0.90;;;16.00;99.90;;;;;;5101034;28;20045;-35
2024/04/08 01:34:47;;;;;;;2.20;1.30;;;16.00;99.90;;;;;;5112512;28;20501;-36
2024/04/08 01:37:12;;;;;;;1.98;0.80;;;16.00;99.90;;;;;;5101085;27;20031;-34
2024/04/08 01:39:38;;;;;;;2.05;1.10;;;16.00;99.90;;;;;;5109565;28;20069;-35
2024/04/08 01:42:04;;;;;;;2.42;1.10;;;16.00;99.90;;;;;;5104889;28;20028;-36
2024/04/08 01:44:32;;;;;;;1.42;0.82;;;16.00;99.90;;;;;;5110045;27;20027;-36
2024/04/08 01:46:58;;;;;;;1.65;0.82;;;16.00;99.90;;;;;;5109023;27;20038;-36
2024/04/08 01:49:26;;;;;;;1.75;0.82;;;15.90;99.90;;;;;;5109291;27;20023;-34
2024/04/08 01:51:52;;;;;;;2.03;1.08;;;16.00;99.90;;;;;;5116956;27;20053;-36
2024/04/08 01:54:22;;;;;;;0.93;0.70;;;15.90;99.90;;;;;;5122599;27;20023;-34
2024/04/08 01:56:48;;;;;;;1.67;0.90;;;15.90;99.90;;;;;;5113861;27;20046;-37
2024/04/08 01:59:13;;;;;;;1.48;1.00;;;15.90;99.90;;;;;;5121843;27;20015;-36
2024/04/08 02:01:39;;;;;;;2.10;0.93;;;15.80;99.90;;;;;;5115498;27;20799;-37
2024/04/08 02:04:04;;;;;;;1.90;0.90;;;15.80;99.90;;;;;;5103634;27;20023;-34
2024/04/08 02:06:30;;;;;;;1.48;1.00;;;15.80;99.90;;;;;;5115200;27;20489;-36
2024/04/08 02:08:55;;;;;;;3.90;0.95;;;15.80;99.90;;;;;;5103895;28;20035;-36
2024/04/08 02:11:21;;;;;;;1.52;0.80;;;15.80;99.90;;;;;;5116241;27;20027;-35
2024/04/08 02:13:46;;;;;;;1.63;1.05;;;15.80;99.90;;;;;;5104233;28;20020;-32
2024/04/08 02:16:13;;;;;;;1.20;0.80;;;15.70;99.90;;;;;;5115830;27;20026;-34
2024/04/08 02:18:39;;;;;;;2.55;1.20;;;15.70;99.90;;;;;;5104303;27;20031;-36
2024/04/08 02:21:04;;;;;;;1.30;0.90;;;15.80;99.90;;;;;;5112959;27;20045;-32
2024/04/08 02:23:30;;;;;;;1.77;1.27;;;15.70;99.90;;;;;;5105444;27;20077;-32
2024/04/08 02:25:55;;;;;;;2.17;1.40;;;15.80;99.90;;;;;;5111013;27;20049;-34
2024/04/08 02:28:21;;;;;;;2.70;1.40;;;15.80;99.90;;;;;;5108539;27;20108;-35
2024/04/08 02:30:47;;;;;;;2.45;1.30;;;15.70;99.90;;;;;;5107177;27;20019;-32
2024/04/08 02:33:12;;;;;;;2.22;1.20;;;15.70;99.90;;;;;;5111839;27;20025;-37
2024/04/08 02:35:38;;;;;;;2.22;1.20;;;15.70;99.90;;;;;;5104400;27;20026;-35
2024/04/08 02:38:04;;;;;;;2.17;1.50;;;15.70;99.90;;;;;;5113985;27;20109;-32
2024/04/08 02:40:33;;;;;;;2.03;1.15;;;15.70;99.90;;;;;;5104696;27;20069;-35
2024/04/08 02:43:00;;;;;;;2.30;1.23;;;15.60;99.90;;;;;;5114351;27;20023;-35
2024/04/08 02:45:25;;;;;;;1.77;1.30;;;15.60;99.90;;;;;;5103302;27;20020;-35
2024/04/08 02:47:51;;;;;;;2.15;1.85;;;15.60;99.90;;;;;;5115357;27;20469;-34
2024/04/08 02:50:17;;;;;;;1.38;0.90;;;15.60;99.90;;;;;;5120899;27;20764;-37
2024/04/08 02:52:48;;;;;;;3.05;1.30;;;15.60;99.90;;;;;;5109590;27;20019;-36
2024/04/08 02:55:14;;;;;;;1.63;0.98;;;15.60;99.90;;;;;;5124265;27;20022;-35
2024/04/08 02:57:40;;;;;;;2.13;1.10;;;15.50;99.90;;;;;;5118434;27;20039;-37
2024/04/08 03:00:06;;;;;;;1.65;1.40;;;15.60;99.90;;;;;;5109587;27;20025;-37
2024/04/08 03:02:31;;;;;;;3.20;1.40;;;15.50;99.90;;;;;;5120404;27;20113;-36
2024/04/08 03:04:57;;;;;;;1.48;1.17;;;15.50;99.90;;;;;;5104829;27;20019;-37
2024/04/08 03:07:23;;;;;;;2.05;1.40;;;15.50;99.90;;;;;;5115155;27;20040;-34
2024/04/08 03:09:52;;;;;;;1.83;1.27;;;15.50;99.90;;;;;;5108041;27;20034;-37
2024/04/08 03:12:17;;;;;;;2.13;1.50;;;15.50;99.90;;;;;;5108336;27;20110;-33
2024/04/08 03:14:46;;;;;;;1.77;1.35;;;15.50;99.90;;;;;;5109693;27;20034;-36
2024/04/08 03:17:12;;;;;;;1.98;1.35;;;15.50;99.90;;;;;;5105487;27;20039;-34
2024/04/08 03:19:37;;;;;;;2.42;1.50;;;15.50;99.90;;;;;;5122115;27;20029;-36
2024/04/08 03:22:06;;;;;;;1.85;1.58;;;15.50;99.90;;;;;;5121412;27;20390;-37
2024/04/08 03:24:31;;;;;;;1.25;1.10;;;15.50;99.90;;;;;;5110708;27;20026;-35
2024/04/08 03:26:57;;;;;;;1.48;1.10;;;15.50;99.90;;;;;;5121106;27;20023;-33
2024/04/08 03:29:22;;;;;;;1.73;1.27;;;15.50;99.90;;;;;;5110951;27;20029;-37
2024/04/08 03:31:51;;;;;;;2.70;1.33;;;15.40;99.90;;;;;;5122594;27;20030;-37
2024/04/08 03:34:16;;;;;;;2.05;1.40;;;15.40;99.90;;;;;;5109217;27;20016;-37
2024/04/08 03:36:42;;;;;;;1.80;1.17;;;15.40;99.90;;;;;;5122242;27;20726;-35
2024/04/08 03:39:08;;;;;;;1.45;1.30;;;15.40;99.90;;;;;;5109899;27;20037;-37
2024/04/08 03:41:33;;;;;;;2.25;1.30;;;15.40;99.90;;;;;;5122363;27;20019;-34
2024/04/08 03:43:59;;;;;;;1.70;1.20;;;15.40;99.90;;;;;;5110841;27;20457;-37
2024/04/08 03:46:24;;;;;;;1.40;1.08;;;15.40;99.90;;;;;;5121146;27;20027;-35
2024/04/08 03:48:50;;;;;;;1.70;1.35;;;15.40;99.90;;;;;;5117007;27;20026;-35
2024/04/08 03:51:17;;;;;;;2.00;1.48;;;15.40;99.90;;;;;;5122903;27;20027;-36
2024/04/08 03:53:43;;;;;;;2.35;1.40;;;15.40;99.90;;;;;;5116739;27;20029;-33
2024/04/08 03:56:13;;;;;;;1.27;1.17;;;15.30;99.90;;;;;;5121410;27;20027;-36
2024/04/08 03:58:39;;;;;;;1.70;1.20;;;15.30;99.90;;;;;;5118024;27;20194;-37
2024/04/08 04:01:05;;;;;;;1.52;1.40;;;15.30;99.90;;;;;;5113292;27;20066;-36
2024/04/08 04:03:31;;;;;;;1.67;1.48;;;15.30;99.90;;;;;;5119702;27;20474;-35
2024/04/08 04:05:57;;;;;;;3.03;1.35;;;15.30;99.90;;;;;;5110481;27;20034;-34
2024/04/08 04:08:23;;;;;;;2.13;1.52;;;15.40;99.90;;;;;;5120081;27;20032;-34
2024/04/08 04:10:48;;;;;;;1.85;1.60;;;15.40;99.90;;;;;;5112784;27;20031;-37
2024/04/08 04:13:14;;;;;;;2.65;2.00;;;15.40;99.90;;;;;;5101224;28;20122;-37
2024/04/08 04:15:39;;;;;;;3.40;1.60;;;15.30;99.90;;;;;;5113945;27;20028;-38
2024/04/08 04:18:05;;;;;;;2.50;1.70;;;15.30;99.90;;;;;;5100863;28;20043;-38
2024/04/08 04:20:42;;;;;;;3.20;2.42;;;15.30;99.90;;;;;;5113564;27;20154;-34
2024/04/08 04:23:10;;;;;;;2.33;2.10;;;15.30;99.90;;;;;;5100954;28;20027;-37
2024/04/08 04:25:36;;;;;;;4.00;2.20;;;15.20;99.90;;;;;;5113911;27;20020;-37
2024/04/08 04:28:02;;;;;;;3.42;2.20;;;15.20;99.90;;;;;;5101032;28;20036;-37
2024/04/08 04:30:30;;;;;;;4.65;2.42;;;15.20;99.90;;;;;;5110887;28;20487;-37
2024/04/08 04:32:56;;;;;;;3.15;2.05;;;15.20;99.90;;;;;;5102709;27;20020;-36
2024/04/08 04:35:28;;;;;;;3.78;2.47;;;15.20;99.90;;;;;;5108978;28;20059;-36
2024/04/08 04:37:53;;;;;;;3.38;2.63;;;15.20;99.90;;;;;;5103566;27;20043;-37
2024/04/08 04:40:19;;;;;;;4.55;2.90;;;15.10;99.90;;;;;;5107145;28;20477;-36
2024/04/08 04:42:45;;;;;;;6.28;3.08;;;15.10;99.90;;;;;;5107472;28;20031;-37
2024/04/08 04:45:11;;;;;;;5.38;2.90;;;15.10;99.90;;;;;;5104244;28;20157;-33
2024/04/08 04:47:37;;;;;;;4.03;2.50;;;15.10;99.90;;;;;;5110391;27;20169;-35
2024/04/08 04:50:04;;;;;;;2.40;2.10;;;15.10;99.90;;;;;;5114033;28;20397;-36
2024/04/08 04:52:30;;;;;;;2.15;1.80;;;15.10;99.90;;;;;;5109782;28;20031;-36
2024/04/08 04:54:55;;;;;;;2.92;1.73;;;15.10;99.90;;;;;;5115973;28;20035;-35
2024/04/08 04:57:21;;;;;;;2.30;1.90;;;15.10;99.90;;;;;;5111949;28;20070;-37
2024/04/08 04:59:47;;;;;;;2.20;2.00;;;15.10;99.90;;;;;;5100453;28;20482;-35
2024/04/08 05:02:12;;;;;;;2.70;1.77;;;15.10;99.90;;;;;;5113394;28;20051;-36
2024/04/08 05:04:38;;;;;;;2.65;1.80;;;15.10;99.90;;;;;;5100944;28;20047;-35
2024/04/08 05:07:04;;;;;;;2.25;1.73;;;15.10;99.90;;;;;;5113500;28;20031;-34
2024/04/08 05:09:29;;;;;;;3.10;2.15;;;15.00;99.90;;;;;;5101689;28;20734;-36
2024/04/08 05:11:55;;;;;;;3.60;1.70;;;15.10;99.90;;;;;;5112050;28;20457;-37
2024/04/08 05:14:20;;;;;;;4.45;2.30;;;15.10;99.90;;;;;;5102056;28;20019;-35
2024/04/08 05:16:48;;;;;;;2.70;2.15;;;15.10;99.90;;;;;;5112892;27;20018;-36
2024/04/08 05:19:17;;;;;;;2.20;1.88;;;15.10;99.90;;;;;;5108431;27;20080;-34
2024/04/08 05:21:46;;;;;;;1.80;1.60;;;15.10;99.90;;;;;;5110651;27;20054;-35
2024/04/08 05:24:11;;;;;;;3.78;1.75;;;15.20;99.90;;;;;;5110472;27;20019;-36
2024/04/08 05:26:43;;;;;;;2.00;1.75;;;15.20;99.90;;;;;;5113205;27;20042;-35
2024/04/08 05:29:08;;;;;;;2.53;2.10;;;15.20;99.90;;;;;;5125328;27;20023;-37
2024/04/08 05:31:37;;;;;;;3.70;1.90;;;15.20;99.90;;;;;;5123311;27;20275;-37
2024/04/08 05:34:06;;;;;;;2.38;2.17;;;15.20;99.90;;;;;;5114043;27;20277;-33
2024/04/08 05:36:31;;;;;;;2.38;2.03;;;15.20;99.90;;;;;;5105802;27;20031;-34
2024/04/08 05:39:03;;;;;;;1.98;1.67;;;15.20;99.90;;;;;;5115567;27;20085;-37
2024/04/08 05:41:29;;;;;;;3.03;1.70;;;15.20;99.90;;;;;;5104715;27;20050;-34
2024/04/08 05:44:04;;;;;;;2.03;1.70;;;15.20;99.90;;;;;;5119345;27;20023;-32
2024/04/08 05:46:29;;;;;;;3.22;1.77;;;15.20;99.90;;;;;;5124597;27;20030;-34
2024/04/08 05:48:55;;;;;;;1.83;1.50;;;15.20;99.90;;;;;;5119231;27;20023;-33
2024/04/08 05:51:25;;;;;;;2.30;1.70;;;15.20;99.90;;;;;;5125465;27;20080;-37
2024/04/08 05:53:54;;;;;;;2.55;1.80;;;15.20;99.90;;;;;;5117464;27;20027;-33
2024/04/08 05:56:20;;;;;;;4.28;1.70;;;15.30;99.90;;;;;;5103663;27;20359;-34
2024/04/08 05:58:46;;;;;;;1.90;1.50;;;15.30;99.90;;;;;;5116928;27;20042;-37
2024/04/08 06:01:12;;;;;;;3.00;1.60;;;15.30;99.90;;;;;;5100449;28;20035;-38
2024/04/08 06:03:37;;;;;;;1.58;1.25;;;15.30;99.90;;;;;;5112873;27;20027;-38
2024/04/08 06:06:06;;;;;;;3.35;1.20;;;15.30;99.90;;;;;;5104523;27;20157;-37
2024/04/08 06:08:32;;;;;;;1.30;1.20;;;15.20;99.90;;;;;;5111424;27;20019;-37
2024/04/08 06:11:04;;;;;;;1.70;1.50;;;15.20;99.90;;;;;;5106547;27;20095;-39
2024/04/08 06:13:30;;;;;;;2.15;1.40;;;15.20;99.90;;;;;;5109791;27;20095;-36
2024/04/08 06:16:05;;;;;;;3.47;2.13;;;15.20;99.90;;;;;;5108655;27;20023;-34
2024/04/08 06:18:31;;;;;;;5.28;3.10;;;15.20;99.90;;;;;;5108409;27;20068;-36
2024/04/08 06:20:58;;;;;;;5.95;3.17;;;15.20;99.90;;;;;;5117069;27;20063;-36
2024/04/08 06:23:23;;;;;;;5.63;2.92;;;15.20;99.90;;;;;;5118776;27;20080;-36
2024/04/08 06:26:03;;;;;;;4.53;2.58;;;15.10;99.90;;;;;;5111888;27;20418;-35
2024/04/08 06:28:29;;;;;;;3.60;2.50;;;15.10;99.90;;;;;;5104410;27;20024;-34
2024/04/08 06:30:55;;;;;;;3.58;2.17;;;15.10;99.90;;;;;;5112119;27;20027;-36
2024/04/08 06:33:21;;;;;;;2.10;1.90;;;15.10;99.90;;;;;;5103722;27;20026;-37
2024/04/08 06:35:47;;;;;;;2.47;1.70;;;15.20;99.90;;;;;;5113830;27;20020;-33
2024/04/08 06:38:13;;;;;;;2.53;1.88;;;15.20;99.90;;;;;;5102731;27;20570;-33
2024/04/08 06:40:42;;;;;;;6.15;1.83;;;15.20;99.90;;;;;;5116361;27;20038;-34
2024/04/08 06:43:08;;;;;;;2.70;1.63;;;15.30;99.90;;;;;;5102545;28;20069;-34
2024/04/08 06:45:34;;;;;;;2.30;1.48;;;15.40;99.90;;;;;;5114603;27;20062;-33
2024/04/08 06:48:00;;;;;;;2.17;1.70;;;15.40;99.90;;;;;;5102624;27;20854;-36
2024/04/08 06:50:26;;;;;;;2.78;2.00;;;15.50;99.90;;;;;;5114766;27;20463;-34
2024/04/08 06:52:52;;;;;;;1.83;1.60;;;15.60;99.90;;;;;;5103734;28;20051;-31
2024/04/08 06:55:18;;;;;;;3.10;2.10;;;15.60;99.90;;;;;;5113377;27;20023;-42
2024/04/08 06:57:44;;;;;;;2.67;1.90;;;15.70;99.90;;;;;;5104586;27;20051;-34
2024/04/08 07:00:10;;;;;;;3.13;2.05;;;15.80;99.90;;;;;;5110253;27;20023;-35
2024/04/08 07:02:36;;;;;;;2.60;2.00;;;15.80;99.90;;;;;;5122085;27;20033;-31
2024/04/08 07:05:04;;;;;;;1.88;1.60;;;15.90;99.90;;;;;;5121581;27;20103;-37
2024/04/08 07:07:30;;;;;;;1.70;1.60;;;15.90;99.90;;;;;;5110725;27;20043;-32
2024/04/08 07:09:55;;;;;;;2.35;1.58;;;15.90;99.90;;;;;;5119556;27;20016;-35
2024/04/08 07:12:21;;;;;;;2.17;1.73;;;16.00;99.90;;;;;;5120467;27;20747;-33
2024/04/08 07:14:53;;;;;;;2.55;1.50;;;16.00;99.90;;;;;;5120191;27;20030;-35
2024/04/08 07:17:31;;;;;;;1.58;1.48;;;16.00;99.90;;;;;;5117449;27;20030;-34
2024/04/08 07:19:57;;;;;;;2.72;2.15;;;16.10;99.90;;;;;;5119638;27;20027;-36
2024/04/08 07:22:23;;;;;;;4.30;3.00;;;16.10;99.90;;;;;;5114405;27;20047;-35
2024/04/08 07:24:48;;;;;;;3.80;2.25;;;16.00;99.90;;;;;;5120442;27;20058;-31
2024/04/08 07:27:14;;;;;;;3.35;2.17;;;16.10;99.90;;;;;;5117495;27;20856;-32
2024/04/08 07:29:39;;;;;;;2.85;2.03;;;16.10;99.90;;;;;;5122493;27;20804;-35
2024/04/08 07:32:05;;;;;;;2.20;1.88;;;16.20;99.90;;;;;;5120106;27;20481;-34
2024/04/08 07:34:31;;;;;;;2.88;2.08;;;16.20;99.90;;;;;;5121795;27;20545;-33
2024/04/08 07:36:56;;;;;;;3.58;2.13;;;16.30;99.90;;;;;;5112273;27;20452;-32
2024/04/08 07:39:22;;;;;;;3.10;2.20;;;16.40;99.90;;;;;;5119493;27;20851;-33
2024/04/08 07:41:48;;;;;;;3.45;1.70;;;16.40;99.90;;;;;;5120357;27;20426;-36
2024/04/08 07:44:13;;;;;;;2.10;1.90;;;16.50;99.90;;;;;;5113873;27;20080;-36
2024/04/08 07:46:39;;;;;;;3.08;2.15;;;16.50;99.90;;;;;;5120613;27;20035;-36
2024/04/08 07:49:04;;;;;;;1.92;1.77;;;16.50;99.90;;;;;;5118144;27;20015;-37
2024/04/08 07:51:30;;;;;;;2.85;2.05;;;16.60;99.90;;;;;;5118291;27;20046;-38
2024/04/08 07:53:56;;;;;;;2.40;2.05;;;16.60;99.90;;;;;;5120448;27;20113;-41
2024/04/08 07:56:21;;;;;;;4.30;2.08;;;16.70;99.90;;;;;;5119245;27;20482;-41
2024/04/08 07:58:51;;;;;;;1.65;1.52;;;16.70;99.90;;;;;;5122107;27;20387;-36
2024/04/08 08:01:17;;;;;;;3.28;2.25;;;16.80;99.90;;;;;;5119294;27;20039;-37
2024/04/08 08:03:42;;;;;;;3.15;2.17;;;16.90;99.90;;;;;;5119025;27;20015;-36
2024/04/08 08:06:08;;;;;;;2.45;2.13;;;17.00;99.90;;;;;;5119448;27;20027;-36
2024/04/08 08:08:33;;;;;;;4.47;3.17;;;17.00;99.90;;;;;;5116651;27;20064;-46
2024/04/08 08:11:03;;;;;;;3.97;2.95;;;17.10;99.90;;;;;;5120317;27;20019;-37
2024/04/08 08:13:30;;;;;;;3.67;3.03;;;17.10;99.90;;;;;;5117623;27;20050;-37
2024/04/08 08:15:59;;;;;;;5.38;3.08;;;17.10;99.90;;;;;;5120184;27;20448;-33
2024/04/08 08:18:25;;;;;;;4.35;2.63;;;17.10;99.90;;;;;;5119747;27;20955;-38
2024/04/08 08:20:52;;;;;;;2.70;2.50;;;17.10;99.90;;;;;;5121332;27;20076;-37
2024/04/08 08:23:18;;;;;;;4.13;2.75;;;17.20;99.90;;;;;;5119524;27;20023;-37
2024/04/08 08:25:45;;;;;;;7.43;3.28;;;17.20;99.90;;;;;;5121437;27;20023;-34
2024/04/08 08:28:11;;;;;;;4.50;3.13;;;17.30;99.90;;;;;;5115208;27;20031;-36
2024/04/08 08:30:37;;;;;;;5.57;3.15;;;17.30;99.90;;;;;;5120757;28;20072;-35
2024/04/08 08:33:03;;;;;;;4.35;3.70;;;17.30;99.90;;;;;;5119410;27;20040;-30
2024/04/08 08:35:30;;;;;;;4.65;3.15;;;17.30;99.90;;;;;;5121119;27;20039;-35
2024/04/08 08:37:56;;;;;;;2.80;2.50;;;17.30;99.90;;;;;;5116588;27;20043;-33
2024/04/08 08:40:23;;;;;;;2.63;2.40;;;17.30;99.90;;;;;;5120212;27;20060;-35
2024/04/08 08:42:51;;;;;;;1.88;1.77;;;17.40;99.90;;;;;;5118635;27;20067;-35
2024/04/08 08:45:17;;;;;;;2.45;2.10;;;17.50;99.90;;;;;;5119633;28;20022;-36
2024/04/08 08:47:43;;;;;;;3.63;2.00;;;17.60;99.90;;;;;;5119230;27;20031;-35
2024/04/08 08:50:12;;;;;;;2.53;1.85;;;17.60;99.90;;;;;;5106635;28;20028;-34
2024/04/08 08:52:39;;;;;;;2.13;1.85;;;17.60;99.90;;;;;;5105593;28;20391;-37
2024/04/08 08:55:08;;;;;;;2.92;1.67;;;17.70;99.90;;;;;;5117714;27;20066;-37
2024/04/08 08:57:34;;;;;;;2.42;1.60;;;17.60;99.90;;;;;;5104704;28;20047;-34
2024/04/08 09:00:05;;;;;;;2.25;1.60;;;17.60;99.90;;;;;;5118310;27;20096;-36
2024/04/08 09:02:32;;;;;;;1.85;1.40;;;17.60;99.90;;;;;;5106320;28;20443;-36
2024/04/08 09:04:58;;;;;;;3.67;2.20;;;17.60;99.90;;;;;;5116940;27;20063;-36
2024/04/08 09:07:23;;;;;;;2.45;1.75;;;17.60;99.90;;;;;;5104987;28;20043;-34
2024/04/08 09:09:56;;;;;;;2.50;1.75;;;17.60;99.90;;;;;;5116010;27;20031;-34
2024/04/08 09:12:22;;;;;;;2.50;1.55;;;17.60;99.90;;;;;;5106173;27;20027;-37
2024/04/08 09:14:49;;;;;;;1.63;1.42;;;17.70;99.90;;;;;;5113929;27;20030;-35
2024/04/08 09:17:15;;;;;;;1.98;1.67;;;17.70;99.90;;;;;;5108398;27;20045;-36
2024/04/08 09:19:40;;;;;;;1.98;1.23;;;17.80;99.90;;;;;;5110405;27;20740;-37
2024/04/08 09:22:08;;;;;;;2.33;1.30;;;17.90;99.90;;;;;;5111383;27;20843;-35
2024/04/08 09:24:34;;;;;;;1.52;1.35;;;17.90;99.90;;;;;;5108533;27;20059;-37
2024/04/08 09:27:00;;;;;;;2.47;1.40;;;18.00;99.90;;;;;;5112795;27;20072;-36
2024/04/08 09:29:26;;;;;;;2.75;2.28;;;18.10;99.90;;;;;;5105574;27;20027;-36
2024/04/08 09:31:51;;;;;;;2.72;1.92;;;18.20;99.90;;;;;;5115549;27;20035;-37
2024/04/08 09:34:18;;;;;;;2.78;1.52;;;18.30;99.90;;;;;;5105907;27;20101;-37
2024/04/08 09:36:44;;;;;;;3.03;2.20;;;18.40;99.90;;;;;;5116668;27;20146;-33
2024/04/08 09:39:12;;;;;;;1.83;1.50;;;18.40;99.90;;;;;;5104023;27;20128;-38
2024/04/08 09:41:38;;;;;;;2.28;1.55;;;18.40;99.90;;;;;;5115817;27;20098;-36
2024/04/08 09:44:04;;;;;;;2.97;1.80;;;18.40;99.90;;;;;;5104681;28;20648;-37
2024/04/08 09:46:30;;;;;;;2.72;1.70;;;18.40;99.90;;;;;;5116120;27;20679;-37
2024/04/08 09:48:57;;;;;;;2.88;2.30;;;18.50;99.90;;;;;;5104918;27;20042;-34
2024/04/08 09:51:24;;;;;;;4.35;1.83;;;18.50;99.90;;;;;;5111805;27;20020;-34
2024/04/08 09:53:50;;;;;;;2.30;1.98;;;18.50;99.90;;;;;;5123506;27;20047;-33
2024/04/08 09:56:17;;;;;;;2.92;1.80;;;18.50;99.90;;;;;;5115032;27;20023;-41
2024/04/08 09:58:53;;;;;;;2.58;2.08;;;18.40;99.90;;;;;;5121852;27;20047;-37
2024/04/08 10:01:22;;;;;;;2.88;1.83;;;18.40;99.90;;;;;;5115743;27;20089;-34
2024/04/08 10:03:54;;;;;;;2.17;1.67;;;18.40;99.90;;;;;;5120505;27;20031;-38
2024/04/08 10:06:20;;;;;;;4.00;2.10;;;18.50;99.90;;;;;;5116702;27;20020;-37
2024/04/08 10:08:47;;;;;;;2.40;2.00;;;18.50;99.90;;;;;;5119466;27;20026;-36
2024/04/08 10:11:14;;;;;;;2.20;2.00;;;18.50;99.90;;;;;;5119731;27;20031;-36
2024/04/08 10:13:52;;;;;;;3.60;2.55;;;18.50;99.90;;;;;;5116700;27;20036;-33
2024/04/08 10:16:18;;;;;;;4.97;3.58;;;18.50;99.90;;;;;;5120245;27;20019;-36
2024/04/08 10:18:47;;;;;;;6.32;3.63;;;18.60;99.90;;;;;;5115735;27;20104;-35
2024/04/08 10:21:17;;;;;;;4.95;3.90;;;18.60;99.90;;;;;;5121856;27;20049;-35
2024/04/08 10:23:42;;;;;;;4.82;3.63;;;18.60;99.90;;;;;;5113854;27;20050;-42
2024/04/08 10:26:13;;;;;;;5.55;3.92;;;18.70;99.90;;;;;;5122840;27;20459;-36
2024/04/08 10:28:43;;;;;;;5.20;4.50;;;18.80;99.90;;;;;;5112121;27;20102;-37
2024/04/08 10:31:11;;;;;;;8.43;5.63;;;18.80;99.90;;;;;;5121073;27;20030;-33
2024/04/08 10:33:37;;;;;;;6.35;4.50;;;18.90;99.90;;;;;;5110832;27;20588;-34
2024/04/08 10:36:03;;;;;;;5.90;4.32;;;18.90;99.90;;;;;;5121661;27;20023;-36
2024/04/08 10:38:32;;;;;;;5.80;4.85;;;18.90;99.90;;;;;;5117512;27;20031;-37
2024/04/08 10:41:07;;;;;;;4.55;3.90;;;18.90;99.90;;;;;;5102150;28;20024;-38
2024/04/08 10:43:34;;;;;;;4.57;4.13;;;19.00;99.90;;;;;;5114691;27;20130;-36
2024/04/08 10:46:04;;;;;;;4.53;3.97;;;19.00;99.90;;;;;;5104184;28;20035;-36
2024/04/08 10:48:31;;;;;;;3.60;2.83;;;19.10;99.90;;;;;;5116133;27;20027;-37
2024/04/08 10:50:56;;;;;;;4.18;3.78;;;19.20;99.90;;;;;;5119840;27;20137;-38
2024/04/08 10:53:24;;;;;;;4.20;3.80;;;19.30;99.90;;;;;;5119626;27;20126;-33
2024/04/08 10:55:50;;;;;;;4.30;3.35;;;19.40;99.90;;;;;;5103673;27;20027;-35
2024/04/08 10:58:15;;;;;;;3.53;3.22;;;19.50;99.90;;;;;;5111298;27;20027;-35
2024/04/08 11:00:41;;;;;;;6.57;5.28;;;19.50;99.90;;;;;;5106406;27;20077;-34
2024/04/08 11:03:08;;;;;;;7.32;5.50;;;19.50;99.90;;;;;;5109121;27;20077;-37
2024/04/08 11:05:33;;;;;;;4.60;4.20;;;19.50;99.90;;;;;;5108379;27;20367;-36
2024/04/08 11:08:00;;;;;;;4.57;4.18;;;19.60;99.90;;;;;;5106069;27;20027;-36
2024/04/08 11:10:30;;;;;;;6.35;4.75;;;19.70;99.90;;;;;;5111191;27;20114;-37
2024/04/08 11:12:56;;;;;;;6.35;5.07;;;19.70;99.90;;;;;;5104460;27;20047;-37
2024/04/08 11:15:23;;;;;;;4.03;3.60;;;19.80;99.90;;;;;;5113793;27;20012;-37
2024/04/08 11:17:58;;;;;;;4.75;3.80;;;19.80;99.90;;;;;;5103496;27;20035;-38
2024/04/08 11:20:26;;;;;;;4.32;3.33;;;19.90;99.90;;;;;;5113952;27;20047;-35
2024/04/08 11:22:52;;;;;;;6.28;4.22;;;19.90;99.90;;;;;;5104098;27;20019;-38
2024/04/08 11:25:18;;;;;;;4.85;4.40;;;20.00;99.90;;;;;;5113896;27;20077;-35
2024/04/08 11:29:07;;;;;;;5.47;4.20;;;20.10;99.90;;;;;;5492230;25;20415;-38
2024/04/08 11:31:32;;;;;;;4.90;3.78;;;20.20;99.90;;;;;;5492970;26;20051;-39
2024/04/08 11:33:58;;;;;;;4.13;3.10;;;20.20;99.90;;;;;;5491047;26;20005;-35
2024/04/08 11:36:23;;;;;;;3.17;2.92;;;20.20;99.90;;;;;;5493348;26;20005;-36
2024/04/08 11:38:50;;;;;;;3.05;2.75;;;20.30;99.90;;;;;;5492725;26;19998;-35
2024/04/08 11:41:16;;;;;;;1.90;1.80;;;20.30;99.90;;;;;;5493665;26;20005;-34
2024/04/08 11:43:44;;;;;;;4.15;2.90;;;20.40;99.90;;;;;;5492988;26;19994;-35
2024/04/08 11:46:12;;;;;;;2.50;2.30;;;20.40;99.90;;;;;;5492578;25;20010;-37
2024/04/08 11:48:40;;;;;;;2.58;2.38;;;20.50;99.90;;;;;;5493045;26;20012;-36
2024/04/08 11:51:07;;;;;;;3.60;2.20;;;20.50;99.90;;;;;;5493391;26;20361;-39
2024/04/08 11:53:33;;;;;;;7.43;2.63;;;20.50;99.90;;;;;;5492430;26;20001;-37
2024/04/08 11:55:58;;;;;;;3.13;2.17;;;20.50;99.90;;;;;;5492535;25;20005;-37
2024/04/08 11:58:25;;;;;;;2.72;2.20;;;20.40;99.90;;;;;;5493224;26;20856;-36
2024/04/08 12:00:50;;;;;;;2.83;2.53;;;20.40;99.90;;;;;;5492972;26;20002;-36
2024/04/08 12:03:16;;;;;;;3.42;2.40;;;20.40;99.90;;;;;;5493905;26;20714;-36
2024/04/08 12:05:42;;;;;;;1.98;1.65;;;20.30;99.90;;;;;;5493256;26;20002;-35
2024/04/08 12:08:08;;;;;;;1.90;1.80;;;20.30;99.90;;;;;;5492531;26;20001;-35
2024/04/08 12:10:34;;;;;;;2.28;2.08;;;20.30;99.90;;;;;;5492797;26;20038;-37
2024/04/08 12:13:17;;;;;;;3.80;2.53;;;20.40;99.90;;;;;;5492909;26;20002;-37
2024/04/08 12:15:43;;;;;;;1.90;1.80;;;20.50;99.90;;;;;;5492169;26;20005;-37
2024/04/08 12:18:09;;;;;;;2.50;2.30;;;20.60;99.90;;;;;;5491839;26;20062;-35
2024/04/08 12:20:38;;;;;;;2.58;2.38;;;20.70;99.90;;;;;;5490998;26;19998;-35
2024/04/08 12:23:03;;;;;;;4.13;3.72;;;20.70;99.90;;;;;;5492172;26;20005;-36
2024/04/08 12:25:29;;;;;;;4.05;3.20;;;20.70;99.90;;;;;;5491952;26;20069;-37
2024/04/08 12:27:54;;;;;;;3.20;2.83;;;20.60;99.90;;;;;;5492657;26;19998;-36
2024/04/08 12:30:20;;;;;;;3.42;3.13;;;20.50;99.90;;;;;;5492422;26;20009;-36
2024/04/08 12:32:45;;;;;;;3.90;2.88;;;20.40;99.90;;;;;;5492399;26;20017;-37
2024/04/08 12:35:11;;;;;;;3.25;2.95;;;20.30;99.90;;;;;;5491128;26;20002;-36
2024/04/08 12:37:37;;;;;;;3.35;2.80;;;20.20;99.90;;;;;;5486590;26;20017;-39
2024/04/08 12:40:04;;;;;;;3.65;3.28;;;20.20;99.90;;;;;;5478291;26;20002;-38
2024/04/08 12:42:29;;;;;;;3.92;3.55;;;20.10;99.90;;;;;;5475808;26;20026;-38
2024/04/08 12:45:08;;;;;;;5.72;4.20;;;20.10;99.90;;;;;;5476383;26;20005;-37
2024/04/08 12:47:34;;;;;;;4.15;3.75;;;20.00;99.90;;;;;;5475411;26;20585;-35